Time;durP1;ratioP1;P1;durP2;ratioP2;P2;SDS_P1;SDS_P2;PMS_P1;PMS_P2;Temp;Humidity;BMP_temperature;BMP_pressure;BME280_temperature;BME280_humidity;BME280_pressure;Samples;Min_cycle;Max_cycle;Signal;HPM_P1;HPM_P2
2022/07/01 05:01:32;;;;;;;1.90;0.80;;;14.40;99.90;;;;;;5968895;23;20120;31
2022/07/01 05:03:58;;;;;;;3.25;1.00;;;14.30;99.90;;;;;;4905412;29;20048;-74
2022/07/01 05:06:24;;;;;;;3.85;1.05;;;14.20;99.90;;;;;;4909111;29;20024;-75
2022/07/01 05:08:50;;;;;;;2.45;0.98;;;14.30;99.90;;;;;;4909148;29;20031;-76
2022/07/01 05:11:19;;;;;;;2.33;0.80;;;14.40;99.90;;;;;;4911090;29;20056;-77
2022/07/01 05:13:45;;;;;;;4.15;1.08;;;14.50;99.90;;;;;;4922981;29;20043;-76
2022/07/01 05:16:10;;;;;;;1.88;0.80;;;14.50;99.90;;;;;;4906339;29;20044;-76
2022/07/01 05:24:07;;;;;;;3.20;1.00;;;14.30;99.90;;;;;;4913597;29;20084;-75
2022/07/01 05:26:33;;;;;;;1.88;0.90;;;14.50;99.90;;;;;;4926675;29;20039;-75
2022/07/01 05:28:59;;;;;;;2.95;1.15;;;14.50;99.90;;;;;;4911809;29;20028;-74
2022/07/01 05:31:25;;;;;;;2.65;1.20;;;14.40;99.90;;;;;;4922797;29;20082;-76
2022/07/01 05:33:50;;;;;;;3.05;1.20;;;14.40;99.90;;;;;;4960983;28;20028;-75
2022/07/01 05:36:16;;;;;;;2.20;1.08;;;14.40;99.90;;;;;;4930698;29;20028;-75
2022/07/01 05:38:42;;;;;;;3.20;1.45;;;14.50;99.90;;;;;;4928700;29;20036;-75
2022/07/01 05:41:08;;;;;;;2.40;1.13;;;14.50;99.90;;;;;;4928047;29;20036;-74
2022/07/01 05:43:34;;;;;;;4.10;1.58;;;14.60;99.90;;;;;;4928900;29;20046;-75
2022/07/01 05:46:01;;;;;;;3.83;1.42;;;14.60;99.90;;;;;;4925329;29;20043;-76
2022/07/01 05:48:27;;;;;;;2.60;1.30;;;14.60;99.90;;;;;;4941139;29;20036;-76
2022/07/01 05:50:53;;;;;;;2.20;1.00;;;14.60;99.90;;;;;;4925648;29;20043;-74
2022/07/01 05:53:19;;;;;;;3.67;1.65;;;14.60;99.90;;;;;;4926717;29;20334;-75
2022/07/01 05:55:45;;;;;;;3.35;1.70;;;14.60;99.90;;;;;;4925638;29;20028;-76
2022/07/01 05:58:12;;;;;;;4.60;2.33;;;14.60;99.90;;;;;;4926028;29;20113;-75
2022/07/01 06:00:41;;;;;;;4.20;1.60;;;14.70;99.90;;;;;;4937168;29;20097;-73
2022/07/01 06:03:10;;;;;;;3.70;1.70;;;14.70;99.90;;;;;;4954019;29;20068;-74
2022/07/01 06:05:39;;;;;;;2.97;1.60;;;14.70;99.90;;;;;;4955371;29;20031;-73
2022/07/01 06:08:05;;;;;;;3.03;1.73;;;14.70;99.90;;;;;;4953097;29;20098;-74
2022/07/01 06:10:35;;;;;;;3.97;1.75;;;14.70;99.90;;;;;;4945373;29;20262;-75
2022/07/01 06:13:02;;;;;;;4.30;1.67;;;14.70;99.90;;;;;;4942568;29;20313;-75
2022/07/01 06:15:28;;;;;;;4.30;1.83;;;14.80;99.90;;;;;;4944385;28;20111;-79
2022/07/01 06:17:54;;;;;;;4.30;1.60;;;14.80;99.90;;;;;;4945291;29;20090;-79
2022/07/01 06:20:20;;;;;;;2.72;1.52;;;14.80;99.90;;;;;;4943640;29;20359;-72
2022/07/01 06:22:47;;;;;;;3.83;1.38;;;14.80;99.90;;;;;;4943412;29;20035;-72
2022/07/01 06:25:15;;;;;;;2.63;1.40;;;14.80;99.90;;;;;;4937687;29;20023;-73
2022/07/01 06:27:45;;;;;;;3.60;1.25;;;14.80;99.90;;;;;;4943300;29;20038;-72
2022/07/01 06:30:11;;;;;;;8.07;1.80;;;14.90;99.90;;;;;;4942307;29;20040;-72
2022/07/01 06:32:38;;;;;;;2.65;1.30;;;14.90;99.90;;;;;;4943608;29;20031;-72
2022/07/01 06:35:04;;;;;;;2.50;1.15;;;14.90;99.90;;;;;;4942974;29;20090;-72
2022/07/01 06:37:33;;;;;;;2.78;1.10;;;15.00;99.90;;;;;;4943208;29;20111;-73
2022/07/01 06:40:00;;;;;;;3.53;1.10;;;15.10;99.90;;;;;;4947057;29;20057;-73
2022/07/01 06:42:25;;;;;;;5.65;1.85;;;15.00;99.90;;;;;;4947466;29;20035;-72
2022/07/01 06:44:54;;;;;;;3.40;1.30;;;15.10;99.90;;;;;;4947377;29;20027;-72
2022/07/01 06:47:20;;;;;;;3.15;1.58;;;15.10;99.90;;;;;;4946752;29;20087;-72
2022/07/01 06:49:46;;;;;;;3.20;1.33;;;15.10;99.90;;;;;;4946836;29;20047;-73
2022/07/01 06:52:12;;;;;;;2.65;1.20;;;15.10;99.90;;;;;;4946282;29;20384;-72
2022/07/01 06:54:40;;;;;;;2.53;1.20;;;15.20;99.90;;;;;;4946996;29;20023;-72
2022/07/01 06:57:06;;;;;;;;;;;15.20;99.90;;;;;;4947133;29;20066;-73
2022/07/01 06:59:35;;;;;;;2.20;1.30;;;15.20;99.90;;;;;;4961972;29;20157;-73
2022/07/01 07:02:00;;;;;;;;;;;15.20;99.90;;;;;;4960645;29;20063;-73
2022/07/01 07:04:26;;;;;;;2.72;1.20;;;15.20;99.90;;;;;;4946740;29;19907;-72
2022/07/01 07:06:52;;;;;;;3.10;1.33;;;15.20;99.90;;;;;;4946722;29;20075;-73
2022/07/01 07:09:18;;;;;;;2.90;1.15;;;15.30;99.90;;;;;;4946414;29;20024;-72
2022/07/01 07:11:44;;;;;;;2.38;1.15;;;15.30;99.90;;;;;;4946549;29;20032;-73
2022/07/01 07:14:10;;;;;;;2.78;1.27;;;15.40;99.90;;;;;;4946133;29;20490;-73
2022/07/01 07:16:35;;;;;;;3.78;1.20;;;15.40;99.90;;;;;;4945830;29;20329;-73
2022/07/01 07:19:01;;;;;;;1.80;0.88;;;15.60;99.90;;;;;;4946025;29;20313;-73
2022/07/01 07:21:27;;;;;;;2.35;1.20;;;15.80;99.90;;;;;;4948693;29;20035;-73
2022/07/01 07:23:52;;;;;;;2.75;1.20;;;15.80;99.90;;;;;;4946353;29;20309;-72
2022/07/01 07:26:18;;;;;;;2.80;1.00;;;15.70;99.90;;;;;;4946488;29;20036;-72
2022/07/01 07:28:44;;;;;;;2.97;0.82;;;15.60;99.90;;;;;;4946399;29;20032;-72
2022/07/01 07:31:10;;;;;;;3.75;0.90;;;15.60;99.90;;;;;;4945559;28;20127;-73
2022/07/01 07:33:36;;;;;;;4.68;1.40;;;15.60;99.90;;;;;;4946636;29;20043;-73
2022/07/01 07:36:01;;;;;;;5.88;1.83;;;15.60;99.90;;;;;;4946153;29;20103;-72
2022/07/01 07:38:27;;;;;;;3.05;1.20;;;15.70;99.90;;;;;;4952627;29;20019;-72
2022/07/01 07:40:53;;;;;;;2.70;1.25;;;15.70;99.90;;;;;;4965217;29;20054;-72
2022/07/01 07:43:19;;;;;;;2.50;1.00;;;15.70;99.90;;;;;;4980484;28;20047;-72
2022/07/01 07:45:44;;;;;;;3.40;1.20;;;15.70;99.90;;;;;;4964718;28;20205;-72
2022/07/01 07:48:10;;;;;;;2.70;1.45;;;15.90;99.90;;;;;;4963846;29;20197;-72
2022/07/01 07:50:36;;;;;;;4.43;1.50;;;15.80;99.90;;;;;;4964697;28;20080;-72
2022/07/01 07:53:02;;;;;;;2.65;1.33;;;15.90;99.90;;;;;;4964686;28;20027;-72
2022/07/01 07:55:28;;;;;;;2.65;1.13;;;15.80;99.90;;;;;;4964226;28;20371;-72
2022/07/01 07:57:54;;;;;;;2.25;1.10;;;15.70;99.90;;;;;;4965306;29;20035;-73
2022/07/01 08:00:23;;;;;;;4.03;1.42;;;15.70;99.90;;;;;;4963538;28;20106;-73
2022/07/01 08:02:49;;;;;;;2.75;1.27;;;15.70;99.90;;;;;;4964876;28;20051;-73
2022/07/01 08:05:20;;;;;;;2.20;1.23;;;15.70;99.90;;;;;;4966626;28;20118;-73
2022/07/01 08:07:47;;;;;;;2.10;1.10;;;15.80;99.90;;;;;;4966332;29;20061;-73
2022/07/01 08:10:15;;;;;;;4.20;1.05;;;15.90;99.90;;;;;;4955000;28;20046;-73
2022/07/01 08:12:41;;;;;;;3.80;1.10;;;15.90;99.90;;;;;;4945765;29;20027;-73
2022/07/01 08:15:08;;;;;;;4.30;1.23;;;15.90;99.90;;;;;;4956139;29;20341;-72
2022/07/01 08:17:34;;;;;;;3.17;1.10;;;15.90;99.90;;;;;;4926836;29;20095;-72
2022/07/01 08:20:01;;;;;;;2.45;1.40;;;15.80;99.90;;;;;;4931457;29;20038;-73
2022/07/01 08:22:27;;;;;;;2.50;1.20;;;15.80;99.90;;;;;;4945454;29;20059;-73
2022/07/01 08:24:56;;;;;;;2.30;1.27;;;15.80;99.90;;;;;;4945841;29;20275;-72
2022/07/01 08:27:22;;;;;;;2.50;0.98;;;15.90;99.90;;;;;;4945591;29;20202;-72
2022/07/01 08:29:48;;;;;;;2.00;1.00;;;15.90;99.90;;;;;;4960110;29;20028;-72
2022/07/01 08:32:14;;;;;;;3.10;1.30;;;16.00;99.90;;;;;;4969745;28;20036;-73
2022/07/01 08:34:40;;;;;;;2.95;1.27;;;16.00;99.90;;;;;;4945606;29;20213;-73
2022/07/01 08:37:05;;;;;;;2.90;1.15;;;16.00;99.90;;;;;;4945074;29;20067;-72
2022/07/01 08:39:31;;;;;;;3.45;1.33;;;16.10;99.90;;;;;;4945388;29;20246;-73
2022/07/01 08:42:00;;;;;;;2.60;1.30;;;16.10;99.90;;;;;;4944198;29;20042;-73
2022/07/01 08:44:26;;;;;;;4.25;1.50;;;16.10;99.90;;;;;;4945108;29;20099;-74
2022/07/01 08:46:52;;;;;;;2.25;1.23;;;16.10;99.90;;;;;;4944849;28;20080;-74
2022/07/01 08:49:18;;;;;;;2.30;1.13;;;16.20;99.90;;;;;;4945545;29;20060;-74
2022/07/01 08:51:43;;;;;;;3.88;1.30;;;16.20;99.90;;;;;;4945050;29;20102;-74
2022/07/01 08:54:09;;;;;;;2.25;1.13;;;16.30;99.90;;;;;;4944702;29;20038;-74
2022/07/01 08:56:45;;;;;;;2.72;1.33;;;16.30;99.90;;;;;;4944260;29;20028;-73
2022/07/01 08:59:31;;;;;;;1.52;0.80;;;16.40;99.90;;;;;;4944284;29;20336;-74
2022/07/01 09:02:00;;;;;;;1.92;1.10;;;16.30;99.90;;;;;;4942827;28;20464;-74
2022/07/01 09:04:26;;;;;;;2.63;1.00;;;16.20;99.90;;;;;;4959622;29;20035;-74
2022/07/01 09:07:02;;;;;;;3.10;0.98;;;16.20;99.90;;;;;;4945027;29;20058;-73
2022/07/01 09:09:28;;;;;;;2.50;1.10;;;16.20;99.90;;;;;;4944869;29;20119;-73
2022/07/01 09:11:55;;;;;;;2.88;1.27;;;16.40;99.90;;;;;;4944367;29;20039;-73
2022/07/01 09:14:22;;;;;;;2.83;0.98;;;16.40;99.90;;;;;;4944393;29;20042;-73
2022/07/01 09:16:52;;;;;;;2.78;1.20;;;16.30;99.90;;;;;;4942417;28;20047;-73
2022/07/01 09:19:20;;;;;;;2.97;1.23;;;16.20;99.90;;;;;;4944286;29;20352;-73
2022/07/01 09:22:00;;;;;;;1.95;0.80;;;16.20;99.90;;;;;;4944288;29;20070;-73
2022/07/01 09:24:30;;;;;;;2.08;1.08;;;16.20;99.90;;;;;;4959256;29;20032;-73
2022/07/01 09:27:03;;;;;;;2.90;1.30;;;16.00;99.90;;;;;;4944234;29;20122;-74
2022/07/01 09:29:33;;;;;;;2.22;1.02;;;15.80;99.90;;;;;;4943983;29;20102;-72
2022/07/01 09:32:02;;;;;;;4.10;1.20;;;15.70;99.90;;;;;;4943339;29;20095;-73
2022/07/01 09:34:39;;;;;;;3.28;1.58;;;15.50;99.90;;;;;;4943980;29;20035;-73
2022/07/01 09:37:05;;;;;;;3.45;1.40;;;15.40;99.90;;;;;;4943894;29;20440;-73
2022/07/01 09:39:45;;;;;;;3.55;1.10;;;15.20;99.90;;;;;;4942928;29;20019;-73
2022/07/01 09:42:11;;;;;;;4.32;1.45;;;15.10;99.90;;;;;;4943059;29;20043;-75
2022/07/01 09:44:56;;;;;;;2.97;1.38;;;15.10;99.90;;;;;;4943862;29;20038;-72
2022/07/01 09:47:24;;;;;;;2.70;1.10;;;14.90;99.90;;;;;;4943213;29;20043;-73
2022/07/01 09:49:50;;;;;;;4.07;1.17;;;14.90;99.90;;;;;;4944164;29;20097;-73
2022/07/01 09:52:17;;;;;;;2.90;1.15;;;15.00;99.90;;;;;;4943183;29;20065;-73
2022/07/01 09:54:47;;;;;;;5.03;1.55;;;15.10;99.90;;;;;;4944050;29;20282;-74
2022/07/01 09:57:13;;;;;;;4.53;1.20;;;15.20;99.90;;;;;;4943127;29;20095;-78
2022/07/01 09:59:39;;;;;;;3.75;1.08;;;15.20;99.90;;;;;;4943199;29;20032;-71
2022/07/01 10:02:07;;;;;;;2.92;1.10;;;15.30;99.90;;;;;;4942340;29;20083;-72
2022/07/01 10:04:36;;;;;;;2.95;0.88;;;15.30;99.90;;;;;;4943869;29;20047;-74
2022/07/01 10:07:10;;;;;;;;;;;15.40;99.90;;;;;;4959048;29;20357;-78
2022/07/01 10:09:55;;;;;;;2.80;0.90;;;15.70;99.90;;;;;;4974689;28;19907;-77
2022/07/01 10:12:32;;;;;;;2.10;0.90;;;16.00;99.90;;;;;;4942294;29;20035;-76
2022/07/01 10:14:59;;;;;;;2.10;0.85;;;16.50;99.90;;;;;;4942322;29;20040;-76
2022/07/01 10:17:29;;;;;;;3.55;1.50;;;16.80;99.90;;;;;;4942960;28;20111;-76
2022/07/01 10:19:57;;;;;;;2.53;0.90;;;17.00;99.90;;;;;;4943615;29;20058;-71
2022/07/01 10:22:28;;;;;;;2.30;0.85;;;17.40;99.90;;;;;;4943563;29;20126;-71
2022/07/01 10:24:54;;;;;;;3.67;1.25;;;17.70;99.90;;;;;;4943801;29;20048;-71
2022/07/01 10:27:25;;;;;;;2.35;0.90;;;17.90;99.90;;;;;;4943043;29;20047;-71
2022/07/01 10:30:12;;;;;;;1.88;0.82;;;18.20;99.90;;;;;;4943668;29;20315;-72
2022/07/01 10:32:51;;;;;;;2.92;0.80;;;18.40;99.90;;;;;;4943050;29;20070;-72
2022/07/01 10:35:17;;;;;;;1.83;0.60;;;18.90;99.90;;;;;;4943619;29;20040;-70
2022/07/01 10:38:01;;;;;;;3.38;0.77;;;19.30;99.90;;;;;;4943150;29;20034;-72
2022/07/01 10:40:48;;;;;;;1.08;0.50;;;19.60;99.90;;;;;;4958672;29;20066;-71
2022/07/01 10:43:31;;;;;;;1.77;0.68;;;19.80;99.90;;;;;;4943284;29;20027;-71
2022/07/01 10:45:57;;;;;;;2.45;0.68;;;20.10;99.90;;;;;;4942891;28;20082;-76
2022/07/01 10:48:24;;;;;;;1.65;0.60;;;20.70;99.90;;;;;;4943862;29;20040;-73
2022/07/01 10:50:51;;;;;;;1.92;0.50;;;21.10;99.40;;;;;;4958988;29;20212;-74
2022/07/01 10:53:18;;;;;;;1.55;0.60;;;21.40;97.60;;;;;;4942167;29;20369;-75
2022/07/01 10:55:49;;;;;;;5.75;0.65;;;21.80;96.40;;;;;;4943589;29;20016;-73
2022/07/01 10:58:21;;;;;;;1.63;0.60;;;21.90;96.00;;;;;;4943185;29;20063;-77
2022/07/01 11:00:50;;;;;;;2.88;0.60;;;21.90;92.90;;;;;;4942667;29;20043;-72
2022/07/01 11:03:16;;;;;;;;;;;22.00;92.50;;;;;;4943196;29;20051;-75
2022/07/01 11:05:44;;;;;;;1.80;0.68;;;21.40;92.50;;;;;;4943286;29;19907;-76
2022/07/01 11:08:11;;;;;;;1.90;0.50;;;21.40;93.30;;;;;;4942954;29;20082;-75
2022/07/01 11:10:41;;;;;;;2.40;0.93;;;21.10;93.40;;;;;;4941973;29;20019;-75
2022/07/01 11:13:08;;;;;;;1.65;0.57;;;20.90;94.80;;;;;;4942970;29;20123;-76
2022/07/01 11:15:34;;;;;;;2.65;0.60;;;20.90;95.90;;;;;;4942753;28;20259;-74
2022/07/01 11:18:01;;;;;;;1.08;0.38;;;20.70;94.70;;;;;;4942461;29;20043;-75
2022/07/01 11:20:29;;;;;;;2.83;0.60;;;20.70;94.90;;;;;;4943426;29;20318;-74
2022/07/01 11:22:55;;;;;;;2.78;0.60;;;20.40;95.10;;;;;;4942281;29;20373;-78
2022/07/01 11:25:21;;;;;;;1.13;0.40;;;20.50;94.50;;;;;;4945332;29;20043;-75
2022/07/01 11:27:51;;;;;;;1.77;0.43;;;20.50;94.90;;;;;;4948134;29;20039;-76
2022/07/01 11:30:19;;;;;;;2.38;0.50;;;20.50;94.60;;;;;;4946548;28;20340;-74
2022/07/01 11:32:53;;;;;;;1.30;0.40;;;20.40;94.60;;;;;;4953866;29;20042;-72
2022/07/01 11:40:58;;;;;;;2.47;0.50;;;20.00;93.80;;;;;;4975133;29;20044;-70
2022/07/01 11:43:27;;;;;;;2.25;0.50;;;19.90;94.20;;;;;;4945505;29;20106;-72
2022/07/01 11:45:54;;;;;;;2.20;0.45;;;20.20;93.70;;;;;;4945888;29;20039;-72
2022/07/01 11:48:36;;;;;;;1.65;0.82;;;20.40;93.20;;;;;;4952898;29;20462;-72
2022/07/01 11:51:09;;;;;;;1.55;0.43;;;20.70;93.60;;;;;;4948569;29;20047;-73
2022/07/01 11:53:35;;;;;;;2.42;0.52;;;21.10;92.90;;;;;;4946062;29;20156;-73
2022/07/01 11:56:01;;;;;;;1.17;0.43;;;22.20;93.00;;;;;;4945376;29;20027;-74
2022/07/01 11:58:51;;;;;;;1.90;0.40;;;23.50;90.00;;;;;;4945276;29;20379;-72
2022/07/01 12:01:27;;;;;;;1.35;0.30;;;23.90;86.70;;;;;;4944194;29;20139;-75
2022/07/01 12:03:54;;;;;;;1.30;0.50;;;25.00;83.00;;;;;;4944136;29;20035;-75
2022/07/01 12:06:23;;;;;;;1.87;0.40;;;25.30;81.80;;;;;;4941364;29;20263;-75
2022/07/01 12:08:50;;;;;;;1.38;0.35;;;25.30;81.40;;;;;;4945313;29;20443;-75
2022/07/01 12:11:17;;;;;;;1.10;0.40;;;25.50;80.30;;;;;;4945179;29;20321;-76
2022/07/01 12:13:45;;;;;;;1.25;0.40;;;26.40;79.80;;;;;;4945927;29;20063;-74
2022/07/01 12:16:12;;;;;;;1.55;0.55;;;27.10;79.60;;;;;;4944421;28;20106;-73
2022/07/01 12:19:14;;;;;;;3.03;0.47;;;27.80;75.50;;;;;;4943685;29;20046;-73
2022/07/01 12:21:53;;;;;;;1.63;0.40;;;28.20;73.20;;;;;;4885829;29;20053;-73
2022/07/01 12:24:26;;;;;;;1.58;0.40;;;28.20;72.40;;;;;;4938827;29;20407;-75
2022/07/01 12:26:58;;;;;;;2.70;0.40;;;27.90;74.30;;;;;;4944209;29;20054;-76
2022/07/01 12:29:26;;;;;;;2.33;0.43;;;27.00;72.90;;;;;;4944549;29;20037;-74
2022/07/01 12:32:05;;;;;;;1.48;0.60;;;26.50;74.90;;;;;;4951847;28;20150;-74
2022/07/01 12:34:39;;;;;;;;;;;26.70;74.40;;;;;;4946157;29;20032;-74
2022/07/01 12:37:09;;;;;;;1.95;0.40;;;26.80;75.00;;;;;;4944672;29;19914;-75
2022/07/01 12:39:50;;;;;;;2.38;0.60;;;26.10;76.00;;;;;;4945352;29;20490;-75
2022/07/01 12:42:24;;;;;;;3.60;0.50;;;25.20;77.10;;;;;;4945169;29;20095;-74
2022/07/01 12:44:51;;;;;;;2.58;0.70;;;24.30;80.80;;;;;;4967351;28;20072;-74
2022/07/01 12:47:24;;;;;;;2.58;0.70;;;23.60;82.40;;;;;;4938826;28;20059;-75
2022/07/01 12:50:07;;;;;;;3.03;0.80;;;23.20;83.00;;;;;;4925638;29;20099;-73
2022/07/01 12:52:33;;;;;;;2.53;0.93;;;22.60;85.00;;;;;;4926206;29;20023;-73
2022/07/01 12:54:59;;;;;;;2.95;0.90;;;21.90;87.50;;;;;;4925840;29;20059;-76
2022/07/01 12:57:30;;;;;;;1.67;0.73;;;21.70;89.10;;;;;;4925612;29;20047;-72
2022/07/01 12:59:56;;;;;;;1.58;0.57;;;21.50;90.70;;;;;;4926028;29;20039;-72
2022/07/01 13:02:22;;;;;;;2.88;0.90;;;21.40;90.10;;;;;;4935717;29;20081;-73
2022/07/01 13:04:47;;;;;;;3.42;0.90;;;21.40;90.10;;;;;;4958833;29;20106;-72
2022/07/01 13:07:13;;;;;;;2.20;0.90;;;21.20;90.10;;;;;;4944147;29;20261;-72
2022/07/01 13:09:39;;;;;;;2.58;1.00;;;21.30;90.40;;;;;;4944413;29;20051;-73
2022/07/01 13:12:05;;;;;;;2.50;1.00;;;21.50;90.40;;;;;;4944466;29;20035;-73
2022/07/01 13:14:31;;;;;;;4.85;1.40;;;21.80;91.20;;;;;;4944770;29;20090;-73
2022/07/01 13:16:57;;;;;;;2.55;0.77;;;22.30;91.00;;;;;;4944076;29;20048;-73
2022/07/01 13:19:22;;;;;;;2.15;0.50;;;24.10;87.30;;;;;;4943731;29;20253;-75
2022/07/01 13:21:48;;;;;;;2.33;0.63;;;25.70;83.50;;;;;;4944208;29;20038;-74
2022/07/01 13:24:14;;;;;;;3.38;0.73;;;27.70;77.30;;;;;;4944014;29;20036;-74
2022/07/01 13:26:40;;;;;;;1.95;0.70;;;27.00;75.30;;;;;;4944395;29;20229;-74
2022/07/01 13:29:06;;;;;;;2.85;0.73;;;26.20;78.50;;;;;;4943701;29;20031;-73
2022/07/01 13:31:31;;;;;;;2.10;0.50;;;25.90;80.30;;;;;;4943762;29;20114;-73
2022/07/01 13:33:57;;;;;;;1.35;0.50;;;25.90;81.60;;;;;;4944186;29;20055;-74
2022/07/01 13:36:23;;;;;;;2.92;0.60;;;26.20;79.50;;;;;;4943715;29;20290;-75
2022/07/01 13:38:49;;;;;;;2.40;0.65;;;26.80;77.00;;;;;;4944307;29;20042;-74
2022/07/01 13:41:16;;;;;;;2.08;0.50;;;26.70;76.80;;;;;;4943846;29;20023;-74
2022/07/01 13:43:42;;;;;;;2.38;0.80;;;25.90;77.80;;;;;;4943384;29;20394;-74
2022/07/01 13:46:08;;;;;;;2.78;0.70;;;27.50;76.40;;;;;;4943002;29;20043;-72
2022/07/01 13:48:34;;;;;;;1.98;0.63;;;29.30;72.90;;;;;;4943925;29;20035;-74
2022/07/01 13:51:00;;;;;;;1.65;0.57;;;30.60;69.10;;;;;;4943722;29;20102;-75
2022/07/01 13:53:29;;;;;;;2.35;0.60;;;30.60;68.40;;;;;;4943047;29;20027;-71
2022/07/01 13:55:54;;;;;;;1.88;0.60;;;29.40;69.20;;;;;;4942799;29;20043;-73
2022/07/01 13:58:23;;;;;;;2.00;0.70;;;28.30;70.50;;;;;;4942470;29;20302;-74
2022/07/01 14:00:49;;;;;;;1.63;0.60;;;27.10;72.90;;;;;;4941031;29;20085;-73
2022/07/01 14:03:15;;;;;;;1.92;0.68;;;26.60;74.00;;;;;;4941987;29;20165;-73
2022/07/01 14:05:44;;;;;;;2.20;0.60;;;26.00;75.50;;;;;;4942590;29;20058;-73
2022/07/01 14:08:10;;;;;;;3.08;0.65;;;25.40;78.10;;;;;;4936875;29;20083;-73
2022/07/01 14:10:37;;;;;;;1.38;0.50;;;25.10;78.30;;;;;;4943058;29;20110;-73
2022/07/01 14:13:06;;;;;;;3.77;0.53;;;25.20;78.60;;;;;;4942521;29;20419;-74
2022/07/01 14:15:31;;;;;;;2.22;0.70;;;25.10;78.50;;;;;;4940192;29;20306;-74
2022/07/01 14:17:57;;;;;;;2.38;0.70;;;25.40;79.20;;;;;;4942686;29;20042;-74
2022/07/01 14:20:26;;;;;;;2.63;0.80;;;26.00;77.50;;;;;;4943058;29;20044;-72
2022/07/01 14:22:53;;;;;;;2.17;0.50;;;25.80;76.30;;;;;;4944137;29;20361;-76
2022/07/01 14:25:21;;;;;;;2.35;0.70;;;25.20;78.10;;;;;;4943748;29;20031;-75
2022/07/01 14:27:46;;;;;;;1.85;0.60;;;25.30;78.30;;;;;;4944447;29;20043;-75
2022/07/01 14:30:13;;;;;;;2.33;0.50;;;26.50;76.20;;;;;;4943427;29;20023;-76
2022/07/01 14:32:39;;;;;;;1.20;0.50;;;29.10;72.00;;;;;;4943796;29;20039;-75
2022/07/01 14:35:05;;;;;;;2.78;0.70;;;31.10;67.90;;;;;;4943367;29;20361;-76
2022/07/01 14:37:31;;;;;;;2.70;0.60;;;32.50;65.00;;;;;;4943389;29;20043;-76
2022/07/01 14:39:58;;;;;;;3.28;0.55;;;32.70;64.20;;;;;;4943678;29;20075;-76
2022/07/01 14:42:28;;;;;;;1.40;0.55;;;33.50;62.00;;;;;;4941693;29;20032;-76
2022/07/01 14:44:55;;;;;;;2.00;0.50;;;34.20;60.70;;;;;;4941102;29;20246;-76
2022/07/01 14:47:22;;;;;;;0.77;0.30;;;35.80;58.60;;;;;;4942851;29;20071;-76
2022/07/01 14:49:49;;;;;;;2.10;0.47;;;36.50;57.30;;;;;;4943694;29;20118;-78
2022/07/01 14:52:17;;;;;;;1.33;0.30;;;36.30;57.10;;;;;;4943161;29;20042;-80
2022/07/01 14:54:43;;;;;;;1.73;0.60;;;36.60;56.10;;;;;;4943037;29;20087;-77
2022/07/01 14:57:09;;;;;;;1.15;0.43;;;36.60;56.10;;;;;;4942761;29;20027;-79
2022/07/01 14:59:35;;;;;;;1.65;0.40;;;36.70;55.50;;;;;;4944710;29;20221;-78
2022/07/01 15:02:03;;;;;;;0.95;0.30;;;37.60;54.20;;;;;;4946307;29;20071;-78
2022/07/01 15:04:33;;;;;;;2.25;0.40;;;38.20;53.80;;;;;;4946893;29;20214;-77
2022/07/01 15:06:59;;;;;;;2.03;0.22;;;38.50;52.70;;;;;;4946709;29;20047;-77
2022/07/01 15:09:25;;;;;;;1.60;0.30;;;38.00;52.50;;;;;;4946467;29;20031;-78
2022/07/01 15:11:52;;;;;;;0.82;0.22;;;37.60;51.20;;;;;;4945532;29;20282;-78
2022/07/01 15:14:19;;;;;;;1.63;0.20;;;38.00;51.60;;;;;;4946136;29;20087;-77
2022/07/01 15:16:44;;;;;;;1.00;0.30;;;37.50;52.30;;;;;;4946228;28;20062;-76
2022/07/01 15:19:11;;;;;;;1.10;0.28;;;38.00;51.40;;;;;;4945523;29;20051;-76
2022/07/01 15:21:37;;;;;;;1.03;0.37;;;39.40;50.20;;;;;;4946371;29;20388;-76
2022/07/01 15:24:03;;;;;;;1.17;0.30;;;39.60;48.20;;;;;;4946295;29;20028;-77
2022/07/01 15:26:29;;;;;;;2.80;0.40;;;40.60;48.50;;;;;;4946383;29;20226;-77
2022/07/01 15:28:55;;;;;;;0.85;0.40;;;38.60;50.10;;;;;;4946650;29;20031;-75
2022/07/01 15:31:21;;;;;;;0.63;0.20;;;35.50;52.60;;;;;;4945487;29;20040;-75
2022/07/01 15:33:47;;;;;;;1.25;0.30;;;34.20;56.60;;;;;;4946820;29;20027;-75
2022/07/01 15:36:13;;;;;;;1.10;0.32;;;33.30;57.90;;;;;;4945672;29;20032;-75
2022/07/01 15:38:39;;;;;;;1.20;0.43;;;32.40;59.50;;;;;;4946479;29;20057;-76
2022/07/01 15:41:08;;;;;;;2.17;0.50;;;31.00;59.10;;;;;;4945595;29;20074;-71
2022/07/01 15:43:34;;;;;;;0.80;0.30;;;30.30;58.60;;;;;;4961184;29;20212;-74
2022/07/01 15:46:01;;;;;;;1.27;0.38;;;30.10;61.10;;;;;;4945562;28;20054;-75
2022/07/01 15:48:27;;;;;;;2.55;0.60;;;31.70;60.10;;;;;;4946041;29;20203;-75
2022/07/01 15:50:53;;;;;;;2.40;0.40;;;34.30;56.20;;;;;;4961080;29;20249;-76
2022/07/01 15:53:23;;;;;;;1.05;0.40;;;36.40;55.50;;;;;;4945909;29;20027;-76
2022/07/01 15:55:50;;;;;;;1.73;0.40;;;39.00;51.60;;;;;;4960487;29;20110;-74
2022/07/01 15:58:18;;;;;;;1.48;0.40;;;39.30;50.80;;;;;;4945475;29;20083;-75
2022/07/01 16:00:47;;;;;;;1.67;0.30;;;38.30;50.30;;;;;;4945273;28;20040;-75
2022/07/01 16:03:16;;;;;;;1.83;0.30;;;37.20;50.80;;;;;;4945221;29;20143;-76
2022/07/01 16:05:47;;;;;;;1.42;0.50;;;34.40;53.10;;;;;;4946072;29;20034;-74
2022/07/01 16:08:29;;;;;;;1.10;0.30;;;31.60;57.50;;;;;;4944202;29;20062;-75
2022/07/01 16:11:05;;;;;;;1.10;0.40;;;29.90;62.00;;;;;;4945301;29;20152;-76
2022/07/01 16:13:32;;;;;;;1.38;0.40;;;28.50;64.90;;;;;;4945820;29;20107;-75
2022/07/01 16:16:00;;;;;;;3.35;0.30;;;27.40;65.40;;;;;;4956698;28;20047;-78
2022/07/01 16:18:30;;;;;;;1.25;0.43;;;26.70;67.40;;;;;;4940817;29;20326;-76
2022/07/01 16:21:01;;;;;;;0.85;0.30;;;26.40;67.90;;;;;;4964622;28;20317;-79
2022/07/01 16:23:32;;;;;;;1.73;0.50;;;26.30;68.20;;;;;;4943993;29;20277;-78
2022/07/01 16:26:01;;;;;;;1.08;0.40;;;26.00;68.50;;;;;;4960227;29;20047;-77
2022/07/01 16:28:30;;;;;;;1.95;0.40;;;25.80;68.60;;;;;;4944049;29;20046;-77
2022/07/01 16:30:59;;;;;;;1.30;0.20;;;25.70;69.60;;;;;;4959546;28;20075;-77
2022/07/01 16:33:25;;;;;;;1.73;0.43;;;27.20;67.20;;;;;;4944975;29;20031;-74
2022/07/01 16:36:01;;;;;;;1.13;0.40;;;29.30;62.60;;;;;;4945450;29;20130;-74
2022/07/01 16:38:31;;;;;;;1.48;0.40;;;28.80;62.60;;;;;;4944883;29;20023;-74
2022/07/01 16:41:29;;;;;;;2.35;0.50;;;28.70;63.30;;;;;;4944843;29;20087;-75
2022/07/01 16:43:57;;;;;;;1.80;0.43;;;30.80;60.60;;;;;;4944481;29;20111;-75
2022/07/01 16:46:30;;;;;;;1.10;0.30;;;32.50;57.70;;;;;;4944739;29;20366;-76
2022/07/01 16:48:59;;;;;;;1.15;0.40;;;31.40;57.80;;;;;;4945305;29;20023;-76
2022/07/01 16:51:31;;;;;;;1.73;0.40;;;29.80;60.10;;;;;;4944578;29;20068;-74
2022/07/01 16:53:56;;;;;;;2.40;0.70;;;28.70;62.10;;;;;;4928181;29;20050;-73
2022/07/01 16:56:25;;;;;;;1.67;0.30;;;29.90;61.10;;;;;;4943999;29;20336;-76
2022/07/01 16:58:59;;;;;;;2.08;0.50;;;31.30;58.70;;;;;;4959413;29;20032;-76
2022/07/01 17:01:29;;;;;;;1.70;0.43;;;32.40;57.10;;;;;;4943392;29;20036;-74
2022/07/01 17:03:57;;;;;;;1.83;0.63;;;33.40;55.90;;;;;;4928105;29;20051;-76
2022/07/01 17:06:23;;;;;;;;;;;33.70;55.10;;;;;;4943607;29;20094;-75
2022/07/01 17:08:51;;;;;;;1.30;0.40;;;34.90;54.20;;;;;;4944936;29;19910;-76
2022/07/01 17:11:17;;;;;;;2.95;0.50;;;33.70;54.80;;;;;;4959262;29;20062;-75
2022/07/01 17:13:45;;;;;;;1.02;0.30;;;31.90;56.80;;;;;;4944845;29;20272;-74
2022/07/01 17:16:19;;;;;;;0.95;0.43;;;29.70;59.50;;;;;;4944928;28;20048;-77
2022/07/01 17:18:46;;;;;;;1.38;0.40;;;28.40;62.10;;;;;;4946321;29;20027;-77
2022/07/01 17:21:16;;;;;;;1.92;0.60;;;27.10;65.00;;;;;;4944736;29;20035;-76
2022/07/01 17:23:51;;;;;;;2.55;0.50;;;26.40;66.30;;;;;;4955342;29;20032;-76
2022/07/01 17:26:22;;;;;;;1.90;0.60;;;25.80;68.10;;;;;;4958283;29;20083;-76
2022/07/01 17:29:09;;;;;;;2.38;0.40;;;25.30;69.70;;;;;;4973263;28;20099;-78
2022/07/01 17:31:55;;;;;;;1.98;0.47;;;25.10;70.60;;;;;;4956902;28;20031;-76
2022/07/01 17:34:25;;;;;;;1.25;0.40;;;25.00;70.30;;;;;;4944515;29;20091;-78
2022/07/01 17:36:52;;;;;;;1.63;0.60;;;26.70;67.80;;;;;;4959894;29;20079;-76
2022/07/01 17:39:18;;;;;;;1.70;0.38;;;29.10;63.40;;;;;;4944966;29;20031;-76
2022/07/01 17:41:52;;;;;;;3.13;0.60;;;30.90;60.90;;;;;;4944982;29;20213;-76
2022/07/01 17:44:21;;;;;;;1.50;0.50;;;32.10;57.90;;;;;;4943996;29;20068;-77
2022/07/01 17:46:48;;;;;;;1.35;0.40;;;32.70;56.20;;;;;;4958363;28;20119;-77
2022/07/01 17:49:22;;;;;;;1.27;0.28;;;33.10;55.60;;;;;;4943906;29;20028;-77
2022/07/01 17:51:48;;;;;;;3.60;0.47;;;34.00;54.60;;;;;;4944128;29;20103;-77
2022/07/01 17:54:22;;;;;;;2.22;0.50;;;33.80;54.00;;;;;;4958875;29;20039;-76
2022/07/01 17:56:50;;;;;;;2.03;0.30;;;32.40;55.40;;;;;;4946255;29;20043;-76
2022/07/01 17:59:18;;;;;;;1.10;0.25;;;30.50;58.40;;;;;;4943809;29;20031;-76
2022/07/01 18:01:47;;;;;;;2.58;0.85;;;30.30;59.40;;;;;;4943313;28;20156;-78
2022/07/01 18:04:17;;;;;;;1.40;0.38;;;30.90;58.50;;;;;;4942626;29;20099;-77
2022/07/01 18:06:43;;;;;;;2.05;0.60;;;31.60;57.30;;;;;;4943876;29;20063;-76